Odessa, Nebraska
Current Conditions -  °F | °C
As of 10:55 PM on Friday 21 Nov 2014 (Local Time) from KEAR Reporting Station
Clear Clear  
Wind Chill: 29°   Ceiling: Unl
Heat Index: 36°   Visibility: 10mi
Dew Point: 30°   Wind: 9mph
Humidity: 81%   Direction: 190°S
Pressure: 29.96"   Gusts: NA
Location:  40.7°N, 99.26°W
Report Text: KEAR 220455Z 19008KT 10SM CLR 02/M01 A2996 RMK AO1
Loading
Personal Weather Stations






























Interactive Weather Map New forecast layout! Learn more

10-Day Weather Forecast

Advertisements
Track Severe Weather on mobile